sensor_id;sensor_type;location;lat;lon;timestamp;pressure;altitude;pressure_sealevel;temperature
34807;BMP180;18310;55.586;12.286;2023-04-08T00:00:08;102587.00;;;16.30
34807;BMP180;18310;55.586;12.286;2023-04-08T00:03:13;102595.00;;;16.30
34807;BMP180;18310;55.586;12.286;2023-04-08T00:06:17;102583.00;;;16.20
34807;BMP180;18310;55.586;12.286;2023-04-08T00:09:20;102599.00;;;16.20
34807;BMP180;18310;55.586;12.286;2023-04-08T00:12:23;102594.00;;;16.20
34807;BMP180;18310;55.586;12.286;2023-04-08T00:15:27;102594.00;;;16.20
34807;BMP180;18310;55.586;12.286;2023-04-08T00:18:32;102597.00;;;16.20
34807;BMP180;18310;55.586;12.286;2023-04-08T00:21:35;102594.00;;;16.20
34807;BMP180;18310;55.586;12.286;2023-04-08T00:24:38;102601.00;;;16.10
34807;BMP180;18310;55.586;12.286;2023-04-08T00:27:42;102596.00;;;16.10
34807;BMP180;18310;55.586;12.286;2023-04-08T00:30:45;102596.00;;;16.10
34807;BMP180;18310;55.586;12.286;2023-04-08T00:33:51;102598.00;;;16.10
34807;BMP180;18310;55.586;12.286;2023-04-08T00:36:54;102595.00;;;16.10
34807;BMP180;18310;55.586;12.286;2023-04-08T00:39:57;102600.00;;;16.00
34807;BMP180;18310;55.586;12.286;2023-04-08T00:43:01;102602.00;;;16.00
34807;BMP180;18310;55.586;12.286;2023-04-08T00:46:04;102584.00;;;15.90
34807;BMP180;18310;55.586;12.286;2023-04-08T00:49:09;102599.00;;;15.80
34807;BMP180;18310;55.586;12.286;2023-04-08T00:52:13;102597.00;;;15.70
34807;BMP180;18310;55.586;12.286;2023-04-08T00:55:18;102592.00;;;15.70
34807;BMP180;18310;55.586;12.286;2023-04-08T00:58:21;102595.00;;;15.70
34807;BMP180;18310;55.586;12.286;2023-04-08T01:01:29;102593.00;;;15.60
34807;BMP180;18310;55.586;12.286;2023-04-08T01:04:45;102593.00;;;15.50
34807;BMP180;18310;55.586;12.286;2023-04-08T01:07:52;102592.00;;;15.40
34807;BMP180;18310;55.586;12.286;2023-04-08T01:10:57;102590.00;;;15.40
34807;BMP180;18310;55.586;12.286;2023-04-08T01:14:02;102588.00;;;15.30
34807;BMP180;18310;55.586;12.286;2023-04-08T01:17:07;102581.00;;;15.30
34807;BMP180;18310;55.586;12.286;2023-04-08T01:20:15;102585.00;;;15.30
34807;BMP180;18310;55.586;12.286;2023-04-08T01:23:24;102582.00;;;15.30
34807;BMP180;18310;55.586;12.286;2023-04-08T01:26:32;102592.00;;;15.30
34807;BMP180;18310;55.586;12.286;2023-04-08T01:29:36;102591.00;;;15.30
34807;BMP180;18310;55.586;12.286;2023-04-08T01:32:40;102597.00;;;15.30
34807;BMP180;18310;55.586;12.286;2023-04-08T01:35:46;102597.00;;;15.20
34807;BMP180;18310;55.586;12.286;2023-04-08T01:38:49;102590.00;;;15.30
34807;BMP180;18310;55.586;12.286;2023-04-08T01:41:55;102595.00;;;15.20
34807;BMP180;18310;55.586;12.286;2023-04-08T01:45:00;102585.00;;;15.00
34807;BMP180;18310;55.586;12.286;2023-04-08T01:48:04;102582.00;;;15.00
34807;BMP180;18310;55.586;12.286;2023-04-08T01:51:10;102591.00;;;15.00
34807;BMP180;18310;55.586;12.286;2023-04-08T01:54:13;102591.00;;;14.90
34807;BMP180;18310;55.586;12.286;2023-04-08T01:57:23;102591.00;;;14.80
34807;BMP180;18310;55.586;12.286;2023-04-08T02:00:29;102593.00;;;14.70
34807;BMP180;18310;55.586;12.286;2023-04-08T02:03:33;102594.00;;;14.70
34807;BMP180;18310;55.586;12.286;2023-04-08T02:06:38;102596.00;;;14.60
34807;BMP180;18310;55.586;12.286;2023-04-08T02:09:41;102589.00;;;14.60
34807;BMP180;18310;55.586;12.286;2023-04-08T02:12:46;102589.00;;;14.50
34807;BMP180;18310;55.586;12.286;2023-04-08T02:15:56;102592.00;;;14.50
34807;BMP180;18310;55.586;12.286;2023-04-08T02:19:06;102595.00;;;14.40
34807;BMP180;18310;55.586;12.286;2023-04-08T02:22:13;102588.00;;;14.40
34807;BMP180;18310;55.586;12.286;2023-04-08T02:25:23;102592.00;;;14.30
34807;BMP180;18310;55.586;12.286;2023-04-08T02:28:29;102594.00;;;14.30
34807;BMP180;18310;55.586;12.286;2023-04-08T02:31:33;102600.00;;;14.20
34807;BMP180;18310;55.586;12.286;2023-04-08T02:34:38;102607.00;;;14.10
34807;BMP180;18310;55.586;12.286;2023-04-08T02:37:44;102593.00;;;14.00
34807;BMP180;18310;55.586;12.286;2023-04-08T02:40:49;102593.00;;;14.00
34807;BMP180;18310;55.586;12.286;2023-04-08T02:43:54;102600.00;;;14.00
34807;BMP180;18310;55.586;12.286;2023-04-08T02:46:57;102598.00;;;13.90
34807;BMP180;18310;55.586;12.286;2023-04-08T02:50:00;102607.00;;;13.80
34807;BMP180;18310;55.586;12.286;2023-04-08T02:53:04;102612.00;;;13.80
34807;BMP180;18310;55.586;12.286;2023-04-08T02:56:09;102612.00;;;13.80
34807;BMP180;18310;55.586;12.286;2023-04-08T02:59:14;102606.00;;;13.70
34807;BMP180;18310;55.586;12.286;2023-04-08T03:02:17;102611.00;;;13.70
34807;BMP180;18310;55.586;12.286;2023-04-08T03:05:21;102614.00;;;13.70
34807;BMP180;18310;55.586;12.286;2023-04-08T03:08:24;102620.00;;;13.60
34807;BMP180;18310;55.586;12.286;2023-04-08T03:11:27;102616.00;;;13.60
34807;BMP180;18310;55.586;12.286;2023-04-08T03:14:32;102618.00;;;13.60
34807;BMP180;18310;55.586;12.286;2023-04-08T03:17:36;102621.00;;;13.60
34807;BMP180;18310;55.586;12.286;2023-04-08T03:20:39;102627.00;;;13.50
34807;BMP180;18310;55.586;12.286;2023-04-08T03:23:43;102623.00;;;13.50
34807;BMP180;18310;55.586;12.286;2023-04-08T03:26:46;102623.00;;;13.50
34807;BMP180;18310;55.586;12.286;2023-04-08T03:29:51;102621.00;;;13.50
34807;BMP180;18310;55.586;12.286;2023-04-08T03:32:55;102623.00;;;13.40
34807;BMP180;18310;55.586;12.286;2023-04-08T03:35:58;102623.00;;;13.30
34807;BMP180;18310;55.586;12.286;2023-04-08T03:39:02;102617.00;;;13.30
34807;BMP180;18310;55.586;12.286;2023-04-08T03:42:05;102627.00;;;13.30
34807;BMP180;18310;55.586;12.286;2023-04-08T03:45:10;102617.00;;;13.20
34807;BMP180;18310;55.586;12.286;2023-04-08T03:48:13;102619.00;;;13.20
34807;BMP180;18310;55.586;12.286;2023-04-08T03:51:16;102616.00;;;13.20
34807;BMP180;18310;55.586;12.286;2023-04-08T03:54:19;102628.00;;;13.20
34807;BMP180;18310;55.586;12.286;2023-04-08T03:57:23;102626.00;;;13.10
34807;BMP180;18310;55.586;12.286;2023-04-08T04:00:27;102627.00;;;13.10
34807;BMP180;18310;55.586;12.286;2023-04-08T04:03:31;102624.00;;;13.00
34807;BMP180;18310;55.586;12.286;2023-04-08T04:06:34;102638.00;;;12.90
34807;BMP180;18310;55.586;12.286;2023-04-08T04:09:38;102628.00;;;12.90
34807;BMP180;18310;55.586;12.286;2023-04-08T04:12:41;102640.00;;;12.80
34807;BMP180;18310;55.586;12.286;2023-04-08T04:15:46;102627.00;;;12.80
34807;BMP180;18310;55.586;12.286;2023-04-08T04:18:51;102633.00;;;12.70
34807;BMP180;18310;55.586;12.286;2023-04-08T04:21:55;102641.00;;;12.70
34807;BMP180;18310;55.586;12.286;2023-04-08T04:24:58;102649.00;;;12.60
34807;BMP180;18310;55.586;12.286;2023-04-08T04:28:01;102641.00;;;12.60
34807;BMP180;18310;55.586;12.286;2023-04-08T04:31:06;102645.00;;;12.70
34807;BMP180;18310;55.586;12.286;2023-04-08T04:34:09;102661.00;;;12.60
34807;BMP180;18310;55.586;12.286;2023-04-08T04:37:12;102648.00;;;12.60
34807;BMP180;18310;55.586;12.286;2023-04-08T04:40:16;102645.00;;;12.70
34807;BMP180;18310;55.586;12.286;2023-04-08T04:43:19;102644.00;;;12.70
34807;BMP180;18310;55.586;12.286;2023-04-08T04:46:24;102648.00;;;12.70
34807;BMP180;18310;55.586;12.286;2023-04-08T04:49:27;102657.00;;;12.70
34807;BMP180;18310;55.586;12.286;2023-04-08T04:52:32;102659.00;;;12.70
34807;BMP180;18310;55.586;12.286;2023-04-08T04:55:36;102656.00;;;12.70
34807;BMP180;18310;55.586;12.286;2023-04-08T04:58:42;102654.00;;;12.70
34807;BMP180;18310;55.586;12.286;2023-04-08T05:01:46;102657.00;;;12.70
34807;BMP180;18310;55.586;12.286;2023-04-08T05:04:50;102668.00;;;12.70
34807;BMP180;18310;55.586;12.286;2023-04-08T05:07:54;102665.00;;;12.70
34807;BMP180;18310;55.586;12.286;2023-04-08T05:10:57;102665.00;;;12.70
34807;BMP180;18310;55.586;12.286;2023-04-08T05:14:03;102664.00;;;12.80
34807;BMP180;18310;55.586;12.286;2023-04-08T05:17:08;102664.00;;;13.00
34807;BMP180;18310;55.586;12.286;2023-04-08T05:20:12;102662.00;;;13.30
34807;BMP180;18310;55.586;12.286;2023-04-08T05:23:18;102673.00;;;13.80
34807;BMP180;18310;55.586;12.286;2023-04-08T05:26:21;102672.00;;;14.10
34807;BMP180;18310;55.586;12.286;2023-04-08T05:29:25;102663.00;;;14.40
34807;BMP180;18310;55.586;12.286;2023-04-08T05:32:30;102663.00;;;14.80
34807;BMP180;18310;55.586;12.286;2023-04-08T05:35:34;102673.00;;;15.10
34807;BMP180;18310;55.586;12.286;2023-04-08T05:38:38;102676.00;;;15.40
34807;BMP180;18310;55.586;12.286;2023-04-08T05:41:41;102677.00;;;15.50
34807;BMP180;18310;55.586;12.286;2023-04-08T05:44:45;102686.00;;;15.40
34807;BMP180;18310;55.586;12.286;2023-04-08T05:47:50;102685.00;;;15.40
34807;BMP180;18310;55.586;12.286;2023-04-08T05:50:53;102681.00;;;15.50
34807;BMP180;18310;55.586;12.286;2023-04-08T05:53:57;102689.00;;;15.40
34807;BMP180;18310;55.586;12.286;2023-04-08T05:57:00;102696.00;;;15.30
34807;BMP180;18310;55.586;12.286;2023-04-08T06:00:05;102702.00;;;15.10
34807;BMP180;18310;55.586;12.286;2023-04-08T06:03:10;102697.00;;;15.00
34807;BMP180;18310;55.586;12.286;2023-04-08T06:06:14;102694.00;;;15.00
34807;BMP180;18310;55.586;12.286;2023-04-08T06:09:18;102694.00;;;14.90
34807;BMP180;18310;55.586;12.286;2023-04-08T06:12:21;102686.00;;;14.90
34807;BMP180;18310;55.586;12.286;2023-04-08T06:15:25;102679.00;;;14.90
34807;BMP180;18310;55.586;12.286;2023-04-08T06:18:30;102688.00;;;14.90
34807;BMP180;18310;55.586;12.286;2023-04-08T06:21:34;102690.00;;;14.90
34807;BMP180;18310;55.586;12.286;2023-04-08T06:24:37;102687.00;;;15.10
34807;BMP180;18310;55.586;12.286;2023-04-08T06:27:40;102695.00;;;15.30
34807;BMP180;18310;55.586;12.286;2023-04-08T06:30:43;102698.00;;;15.50
34807;BMP180;18310;55.586;12.286;2023-04-08T06:33:48;102700.00;;;15.90
34807;BMP180;18310;55.586;12.286;2023-04-08T06:36:51;102706.00;;;16.30
34807;BMP180;18310;55.586;12.286;2023-04-08T06:39:54;102711.00;;;16.80
34807;BMP180;18310;55.586;12.286;2023-04-08T06:42:58;102717.00;;;17.20
34807;BMP180;18310;55.586;12.286;2023-04-08T06:46:01;102721.00;;;17.70
34807;BMP180;18310;55.586;12.286;2023-04-08T06:49:06;102727.00;;;18.00
34807;BMP180;18310;55.586;12.286;2023-04-08T06:52:11;102734.00;;;18.30
34807;BMP180;18310;55.586;12.286;2023-04-08T06:55:16;102741.00;;;18.60
34807;BMP180;18310;55.586;12.286;2023-04-08T06:58:19;102743.00;;;18.90
34807;BMP180;18310;55.586;12.286;2023-04-08T07:01:23;102749.00;;;19.20
34807;BMP180;18310;55.586;12.286;2023-04-08T07:04:28;102756.00;;;19.40
34807;BMP180;18310;55.586;12.286;2023-04-08T07:07:31;102760.00;;;19.50
34807;BMP180;18310;55.586;12.286;2023-04-08T07:10:34;102754.00;;;19.60
34807;BMP180;18310;55.586;12.286;2023-04-08T07:13:38;102754.00;;;19.70
34807;BMP180;18310;55.586;12.286;2023-04-08T07:16:42;102765.00;;;20.00
34807;BMP180;18310;55.586;12.286;2023-04-08T07:19:47;102762.00;;;20.10
34807;BMP180;18310;55.586;12.286;2023-04-08T07:22:50;102768.00;;;20.40
34807;BMP180;18310;55.586;12.286;2023-04-08T07:25:54;102772.00;;;20.40
34807;BMP180;18310;55.586;12.286;2023-04-08T07:28:57;102767.00;;;20.30
34807;BMP180;18310;55.586;12.286;2023-04-08T07:32:00;102774.00;;;20.20
34807;BMP180;18310;55.586;12.286;2023-04-08T07:35:05;102764.00;;;20.10
34807;BMP180;18310;55.586;12.286;2023-04-08T08:06:34;102888.31;;;25.93
34807;BMP180;18310;55.586;12.286;2023-04-08T08:09:37;102900.13;;;26.12
34807;BMP180;18310;55.586;12.286;2023-04-08T08:12:41;102904.50;;;26.57
34807;BMP180;18310;55.586;12.286;2023-04-08T08:15:44;102901.09;;;26.35
34807;BMP180;18310;55.586;12.286;2023-04-08T08:18:47;102899.69;;;26.17
34807;BMP180;18310;55.586;12.286;2023-04-08T08:21:53;102896.72;;;26.38
34807;BMP180;18310;55.586;12.286;2023-04-08T08:24:58;102908.78;;;27.02
34807;BMP180;18310;55.586;12.286;2023-04-08T08:28:01;102910.44;;;27.27
34807;BMP180;18310;55.586;12.286;2023-04-08T08:31:05;102916.47;;;27.55
34807;BMP180;18310;55.586;12.286;2023-04-08T08:34:08;102927.66;;;27.82
34807;BMP180;18310;55.586;12.286;2023-04-08T08:37:13;102932.22;;;27.96
34807;BMP180;18310;55.586;12.286;2023-04-08T08:49:01;102923.94;;;26.68
34807;BMP180;18310;55.586;12.286;2023-04-08T08:52:05;102919.19;;;25.69
34807;BMP180;18310;55.586;12.286;2023-04-08T08:55:08;102919.56;;;24.56
34807;BMP180;18310;55.586;12.286;2023-04-08T08:58:32;102930.84;;;23.38
34807;BMP180;18310;55.586;12.286;2023-04-08T09:01:37;102929.44;;;22.49
34807;BMP180;18310;55.586;12.286;2023-04-08T09:04:55;102932.53;;;21.67
34807;BMP180;18310;55.586;12.286;2023-04-08T09:07:59;102931.56;;;21.00
34807;BMP180;18310;55.586;12.286;2023-04-08T09:11:10;102937.66;;;20.41
34807;BMP180;18310;55.586;12.286;2023-04-08T09:14:18;102926.41;;;19.92
34807;BMP180;18310;55.586;12.286;2023-04-08T09:17:30;102945.03;;;19.57
34807;BMP180;18310;55.586;12.286;2023-04-08T09:20:36;102922.47;;;19.20
34807;BMP180;18310;55.586;12.286;2023-04-08T09:23:41;102942.06;;;19.15
34807;BMP180;18310;55.586;12.286;2023-04-08T09:26:45;102951.25;;;19.03
34807;BMP180;18310;55.586;12.286;2023-04-08T09:29:48;102953.81;;;18.80
34807;BMP180;18310;55.586;12.286;2023-04-08T09:32:53;102945.16;;;18.66
34807;BMP180;18310;55.586;12.286;2023-04-08T09:35:58;102942.75;;;18.65
34807;BMP180;18310;55.586;12.286;2023-04-08T09:39:01;102934.94;;;18.67
34807;BMP180;18310;55.586;12.286;2023-04-08T09:42:07;102939.19;;;18.64
34807;BMP180;18310;55.586;12.286;2023-04-08T09:45:14;102943.00;;;18.60
34807;BMP180;18310;55.586;12.286;2023-04-08T09:48:23;102946.13;;;18.58
34807;BMP180;18310;55.586;12.286;2023-04-08T09:51:32;102950.94;;;18.61
34807;BMP180;18310;55.586;12.286;2023-04-08T09:54:43;102944.97;;;18.59
34807;BMP180;18310;55.586;12.286;2023-04-08T09:57:51;102939.00;;;18.57
34807;BMP180;18310;55.586;12.286;2023-04-08T10:00:57;102953.22;;;18.59
34807;BMP180;18310;55.586;12.286;2023-04-08T10:04:04;102947.38;;;18.61
34807;BMP180;18310;55.586;12.286;2023-04-08T10:07:13;102949.44;;;18.64
34807;BMP180;18310;55.586;12.286;2023-04-08T10:10:17;102950.13;;;18.61
34807;BMP180;18310;55.586;12.286;2023-04-08T10:13:21;102947.38;;;18.61
34807;BMP180;18310;55.586;12.286;2023-04-08T10:16:26;102945.88;;;18.63
34807;BMP180;18310;55.586;12.286;2023-04-08T10:19:38;102934.16;;;18.54
34807;BMP180;18310;55.586;12.286;2023-04-08T10:22:48;102943.53;;;18.50
34807;BMP180;18310;55.586;12.286;2023-04-08T10:25:51;102939.75;;;18.42
34807;BMP180;18310;55.586;12.286;2023-04-08T10:28:55;102933.03;;;18.39
34807;BMP180;18310;55.586;12.286;2023-04-08T10:32:06;102937.00;;;18.42
34807;BMP180;18310;55.586;12.286;2023-04-08T10:35:10;102936.22;;;18.41
34807;BMP180;18310;55.586;12.286;2023-04-08T10:38:16;102932.28;;;18.42
34807;BMP180;18310;55.586;12.286;2023-04-08T10:41:23;102939.19;;;18.49
34807;BMP180;18310;55.586;12.286;2023-04-08T10:44:26;102933.34;;;18.54
34807;BMP180;18310;55.586;12.286;2023-04-08T10:47:29;102933.59;;;18.61
34807;BMP180;18310;55.586;12.286;2023-04-08T10:50:33;102928.53;;;18.63
34807;BMP180;18310;55.586;12.286;2023-04-08T10:53:38;102913.84;;;18.74
34807;BMP180;18310;55.586;12.286;2023-04-08T10:56:44;102922.91;;;18.90
34807;BMP180;18310;55.586;12.286;2023-04-08T10:59:48;102919.59;;;19.00
34807;BMP180;18310;55.586;12.286;2023-04-08T11:02:52;102929.25;;;19.07
34807;BMP180;18310;55.586;12.286;2023-04-08T11:05:56;102917.91;;;19.12
34807;BMP180;18310;55.586;12.286;2023-04-08T11:09:03;102916.47;;;19.18
34807;BMP180;18310;55.586;12.286;2023-04-08T11:12:07;102915.78;;;19.21
34807;BMP180;18310;55.586;12.286;2023-04-08T11:15:12;102914.63;;;19.22
34807;BMP180;18310;55.586;12.286;2023-04-08T11:18:16;102907.22;;;19.26
34807;BMP180;18310;55.586;12.286;2023-04-08T11:21:20;102909.09;;;19.22
34807;BMP180;18310;55.586;12.286;2023-04-08T11:24:26;102907.00;;;19.34
34807;BMP180;18310;55.586;12.286;2023-04-08T11:27:30;102911.19;;;19.44
34807;BMP180;18310;55.586;12.286;2023-04-08T11:30:34;102903.06;;;19.51
34807;BMP180;18310;55.586;12.286;2023-04-08T11:33:44;102910.28;;;19.56
34807;BMP180;18310;55.586;12.286;2023-04-08T11:36:48;102900.41;;;19.58
34807;BMP180;18310;55.586;12.286;2023-04-08T11:39:54;102911.44;;;19.74
34807;BMP180;18310;55.586;12.286;2023-04-08T11:42:58;102907.28;;;19.83
34807;BMP180;18310;55.586;12.286;2023-04-08T11:46:08;102903.44;;;19.88
34807;BMP180;18310;55.586;12.286;2023-04-08T11:49:12;102905.91;;;19.93
34807;BMP180;18310;55.586;12.286;2023-04-08T11:52:15;102904.53;;;20.02
34807;BMP180;18310;55.586;12.286;2023-04-08T11:55:26;102909.03;;;20.11
34807;BMP180;18310;55.586;12.286;2023-04-08T11:58:30;102906.75;;;20.16
34807;BMP180;18310;55.586;12.286;2023-04-08T12:01:34;102898.81;;;20.15
34807;BMP180;18310;55.586;12.286;2023-04-08T12:04:37;102900.94;;;20.21
34807;BMP180;18310;55.586;12.286;2023-04-08T12:07:42;102902.22;;;20.27
34807;BMP180;18310;55.586;12.286;2023-04-08T12:10:46;102900.81;;;20.14
34807;BMP180;18310;55.586;12.286;2023-04-08T12:13:50;102901.22;;;20.16
34807;BMP180;18310;55.586;12.286;2023-04-08T12:16:54;102900.16;;;20.21
34807;BMP180;18310;55.586;12.286;2023-04-08T12:19:58;102899.06;;;20.25
34807;BMP180;18310;55.586;12.286;2023-04-08T12:23:01;102895.53;;;20.28
34807;BMP180;18310;55.586;12.286;2023-04-08T12:26:06;102890.06;;;20.32
34807;BMP180;18310;55.586;12.286;2023-04-08T12:29:09;102888.84;;;20.29
34807;BMP180;18310;55.586;12.286;2023-04-08T12:32:13;102896.47;;;20.36
34807;BMP180;18310;55.586;12.286;2023-04-08T12:35:16;102892.13;;;20.38
34807;BMP180;18310;55.586;12.286;2023-04-08T12:38:20;102893.13;;;20.49
34807;BMP180;18310;55.586;12.286;2023-04-08T12:41:24;102897.88;;;20.49
34807;BMP180;18310;55.586;12.286;2023-04-08T12:44:28;102894.34;;;20.48
34807;BMP180;18310;55.586;12.286;2023-04-08T12:47:31;102884.84;;;20.49
34807;BMP180;18310;55.586;12.286;2023-04-08T12:50:35;102879.44;;;20.56
34807;BMP180;18310;55.586;12.286;2023-04-08T12:53:38;102887.94;;;20.67
34807;BMP180;18310;55.586;12.286;2023-04-08T12:56:43;102886.13;;;20.78
34807;BMP180;18310;55.586;12.286;2023-04-08T12:59:46;102879.84;;;20.81
34807;BMP180;18310;55.586;12.286;2023-04-08T13:02:49;102881.84;;;20.84
34807;BMP180;18310;55.586;12.286;2023-04-08T13:05:53;102874.34;;;20.85
34807;BMP180;18310;55.586;12.286;2023-04-08T13:08:56;102879.53;;;20.86
34807;BMP180;18310;55.586;12.286;2023-04-08T13:12:01;102870.75;;;20.84
34807;BMP180;18310;55.586;12.286;2023-04-08T13:15:06;102864.06;;;20.85
34807;BMP180;18310;55.586;12.286;2023-04-08T13:18:09;102879.88;;;20.85
34807;BMP180;18310;55.586;12.286;2023-04-08T13:21:12;102873.88;;;20.79
34807;BMP180;18310;55.586;12.286;2023-04-08T13:24:16;102872.69;;;20.80
34807;BMP180;18310;55.586;12.286;2023-04-08T13:27:21;102876.59;;;20.76
34807;BMP180;18310;55.586;12.286;2023-04-08T13:30:24;102873.97;;;20.60
34807;BMP180;18310;55.586;12.286;2023-04-08T13:33:27;102878.09;;;20.47
34807;BMP180;18310;55.586;12.286;2023-04-08T13:36:30;102885.28;;;20.29
34807;BMP180;18310;55.586;12.286;2023-04-08T13:39:34;102883.03;;;20.15
34807;BMP180;18310;55.586;12.286;2023-04-08T13:42:38;102880.75;;;19.98
34807;BMP180;18310;55.586;12.286;2023-04-08T13:45:42;102876.88;;;19.83
34807;BMP180;18310;55.586;12.286;2023-04-08T13:48:46;102873.97;;;19.76
34807;BMP180;18310;55.586;12.286;2023-04-08T13:51:49;102880.88;;;19.67
34807;BMP180;18310;55.586;12.286;2023-04-08T13:54:52;102880.50;;;19.49
34807;BMP180;18310;55.586;12.286;2023-04-08T13:57:57;102882.97;;;19.35
34807;BMP180;18310;55.586;12.286;2023-04-08T14:01:00;102887.50;;;19.27
34807;BMP180;18310;55.586;12.286;2023-04-08T14:04:04;102883.34;;;19.18
34807;BMP180;18310;55.586;12.286;2023-04-08T14:07:08;102881.16;;;19.08
34807;BMP180;18310;55.586;12.286;2023-04-08T14:10:11;102886.88;;;18.99
34807;BMP180;18310;55.586;12.286;2023-04-08T14:13:16;102875.63;;;18.92
34807;BMP180;18310;55.586;12.286;2023-04-08T14:16:20;102888.19;;;18.89
34807;BMP180;18310;55.586;12.286;2023-04-08T14:19:23;102888.38;;;18.81
34807;BMP180;18310;55.586;12.286;2023-04-08T14:22:26;102884.06;;;18.68
34807;BMP180;18310;55.586;12.286;2023-04-08T14:25:29;102880.88;;;18.50
34807;BMP180;18310;55.586;12.286;2023-04-08T14:28:34;102885.19;;;18.35
34807;BMP180;18310;55.586;12.286;2023-04-08T14:31:38;102889.75;;;18.28
34807;BMP180;18310;55.586;12.286;2023-04-08T14:34:42;102893.88;;;18.22
34807;BMP180;18310;55.586;12.286;2023-04-08T14:37:45;102902.09;;;18.18
34807;BMP180;18310;55.586;12.286;2023-04-08T14:40:49;102894.53;;;18.15
34807;BMP180;18310;55.586;12.286;2023-04-08T14:43:53;102890.06;;;18.11
34807;BMP180;18310;55.586;12.286;2023-04-08T14:46:57;102890.31;;;18.06
34807;BMP180;18310;55.586;12.286;2023-04-08T14:50:00;102892.59;;;18.04
34807;BMP180;18310;55.586;12.286;2023-04-08T14:53:03;102895.69;;;18.02
34807;BMP180;18310;55.586;12.286;2023-04-08T14:56:07;102887.78;;;18.01
34807;BMP180;18310;55.586;12.286;2023-04-08T14:59:12;102890.94;;;17.87
34807;BMP180;18310;55.586;12.286;2023-04-08T15:02:15;102892.66;;;17.91
34807;BMP180;18310;55.586;12.286;2023-04-08T15:05:19;102883.59;;;17.91
34807;BMP180;18310;55.586;12.286;2023-04-08T15:08:22;102891.03;;;17.90
34807;BMP180;18310;55.586;12.286;2023-04-08T15:11:25;102869.97;;;17.82
34807;BMP180;18310;55.586;12.286;2023-04-08T15:14:30;102881.31;;;17.81
34807;BMP180;18310;55.586;12.286;2023-04-08T15:17:33;102875.22;;;17.75
34807;BMP180;18310;55.586;12.286;2023-04-08T15:20:37;102882.50;;;17.68
34807;BMP180;18310;55.586;12.286;2023-04-08T15:23:40;102884.44;;;17.67
34807;BMP180;18310;55.586;12.286;2023-04-08T15:26:44;102879.63;;;17.64
34807;BMP180;18310;55.586;12.286;2023-04-08T15:29:49;102877.66;;;17.65
34807;BMP180;18310;55.586;12.286;2023-04-08T15:32:52;102881.22;;;17.65
34807;BMP180;18310;55.586;12.286;2023-04-08T15:35:58;102877.22;;;17.63
34807;BMP180;18310;55.586;12.286;2023-04-08T15:39:04;102887.34;;;17.59
34807;BMP180;18310;55.586;12.286;2023-04-08T15:42:08;102880.47;;;17.53
34807;BMP180;18310;55.586;12.286;2023-04-08T15:45:12;102867.16;;;17.42
34807;BMP180;18310;55.586;12.286;2023-04-08T15:48:16;102891.25;;;17.46
34807;BMP180;18310;55.586;12.286;2023-04-08T15:51:19;102896.91;;;17.37
34807;BMP180;18310;55.586;12.286;2023-04-08T15:54:23;102883.94;;;17.25
34807;BMP180;18310;55.586;12.286;2023-04-08T15:57:26;102883.69;;;17.18
34807;BMP180;18310;55.586;12.286;2023-04-08T16:00:33;102884.84;;;17.17
34807;BMP180;18310;55.586;12.286;2023-04-08T16:03:37;102879.47;;;17.09
34807;BMP180;18310;55.586;12.286;2023-04-08T16:06:41;102890.13;;;17.10
34807;BMP180;18310;55.586;12.286;2023-04-08T16:09:47;102888.53;;;17.09
34807;BMP180;18310;55.586;12.286;2023-04-08T16:12:51;102885.31;;;17.07
34807;BMP180;18310;55.586;12.286;2023-04-08T16:15:56;102891.94;;;17.06
34807;BMP180;18310;55.586;12.286;2023-04-08T16:19:00;102891.06;;;17.02
34807;BMP180;18310;55.586;12.286;2023-04-08T16:22:03;102891.59;;;16.96
34807;BMP180;18310;55.586;12.286;2023-04-08T16:25:07;102902.03;;;16.90
34807;BMP180;18310;55.586;12.286;2023-04-08T16:28:10;102890.66;;;16.79
34807;BMP180;18310;55.586;12.286;2023-04-08T16:31:15;102885.16;;;16.67
34807;BMP180;18310;55.586;12.286;2023-04-08T16:34:21;102897.63;;;16.65
34807;BMP180;18310;55.586;12.286;2023-04-08T16:37:24;102895.88;;;16.60
34807;BMP180;18310;55.586;12.286;2023-04-08T16:40:27;102899.19;;;16.54
34807;BMP180;18310;55.586;12.286;2023-04-08T16:43:33;102907.78;;;16.52
34807;BMP180;18310;55.586;12.286;2023-04-08T16:46:38;102908.44;;;16.49
34807;BMP180;18310;55.586;12.286;2023-04-08T16:49:42;102911.09;;;16.46
34807;BMP180;18310;55.586;12.286;2023-04-08T16:52:45;102915.66;;;16.41
34807;BMP180;18310;55.586;12.286;2023-04-08T16:55:50;102926.50;;;16.38
34807;BMP180;18310;55.586;12.286;2023-04-08T16:58:53;102929.59;;;16.36
34807;BMP180;18310;55.586;12.286;2023-04-08T17:01:58;102925.22;;;16.35
34807;BMP180;18310;55.586;12.286;2023-04-08T17:05:01;102935.31;;;16.31
34807;BMP180;18310;55.586;12.286;2023-04-08T17:08:05;102941.00;;;16.26
34807;BMP180;18310;55.586;12.286;2023-04-08T17:11:09;102940.06;;;16.22
34807;BMP180;18310;55.586;12.286;2023-04-08T17:14:13;102940.25;;;16.17
34807;BMP180;18310;55.586;12.286;2023-04-08T17:17:18;102945.94;;;16.12
34807;BMP180;18310;55.586;12.286;2023-04-08T17:20:21;102950.84;;;16.07
34807;BMP180;18310;55.586;12.286;2023-04-08T17:23:25;102954.16;;;16.00
34807;BMP180;18310;55.586;12.286;2023-04-08T17:26:29;102957.56;;;15.97
34807;BMP180;18310;55.586;12.286;2023-04-08T17:29:33;102948.22;;;15.89
34807;BMP180;18310;55.586;12.286;2023-04-08T17:32:38;102950.38;;;15.84
34807;BMP180;18310;55.586;12.286;2023-04-08T17:35:42;102956.03;;;15.79
34807;BMP180;18310;55.586;12.286;2023-04-08T17:38:45;102951.91;;;15.73
34807;BMP180;18310;55.586;12.286;2023-04-08T17:41:50;102951.94;;;15.64
34807;BMP180;18310;55.586;12.286;2023-04-08T17:44:53;102957.81;;;15.54
34807;BMP180;18310;55.586;12.286;2023-04-08T17:48:00;102966.06;;;15.46